Centerton, AR

4:32 AM CDT on March 28, 2015 (GMT -0500)
NW Arkansas Airport | | Change Station
CLOSE
Current Station
Airport
Location: NW Arkansas Airport,
Elevation: 1286 ft
Nearby Weather Stations

Elev 1286 ft 36.28 °N, 94.31 °W | Updated 39 minutes ago

Partly Cloudy
Partly Cloudy
42 °F
Feels Like 39 °F
N
5
Wind Variable Wind from SE

Today
High -- | Low -- °F
--% Chance of Precip.
Yesterday
High -- | Low -- °F
Precip. -- in
7:09 AM 7:35 PM
First Quarter, 61% visible
Pressure 30.09 in
Visibility 10.0 miles
Clouds Scattered Clouds 11000 ft
Windchill 39 °F
Dew Point 27 °F
Humidity 55%
Rainfall 0.00 in
Snow Depth Not available.
UV 0 out of 12
Pollen 9.70 out of 12
Air Quality Not available.
Flu Activity Not available.
METAR KXNA 280853Z AUTO 13004KT 10SM SCT110 06/M03 A3008 RMK AO2 SLP189 T00561028 57013

More Conditions Fewer Conditions

Pressure 30.09 in
Visibility 10.0 miles
Clouds Scattered Clouds 11000 ft
Windchill 39 °F
Dew Point 27 °F
Humidity 55%
Rainfall 0.00 in
Snow Depth Not available.
UV 0 out of 12
Pollen 9.70 out of 12
Air Quality Not available.
Flu Activity Not available.
METAR KXNA 280853Z AUTO 13004KT 10SM SCT110 06/M03 A3008 RMK AO2 SLP189 T00561028 57013

More Conditions Fewer Conditions

Nowcast | as of 3:28 am CDT on March 28, 2015

At 3:28 am...Doppler radars indicated isolated very light showers across portions of northeast Oklahoma. This activity continues to quickly move to the southeast at around 40 mph. Through 6 am...passing light showers or occasional sprinkles will be possible across northeast Oklahoma and into far northwest Arkansas. Trace amounts to perhaps a couple hundredths of an inch of rainfall may occur.

×

10-Day Weather Forecast

Almanac

Astronomy

Mar. 28, 2015 Rise Set
Actual Time
Civil Twilight
Nautical Twilight
Astronomical Twilight
Moon
Length of Visible Light
Length of Day
Tomorrow will be .
, % of the Moon is Illuminated

Today's Extremes

State Highs State Lows

Community

WunderPhotos

Upload Photos

1,808,939 photos uploaded!

WunderBlogs® & News

Nearby

Air Quality

  Air Quality AQ Index Pollutant
Not available.

Snow Depth

Station Depth Elevation

Earthquake Activity

City Distance Mag. Time & Date
Minimum magnitude displayed is 2.5.

Coastal Water Temperatures

Place Temperature

Stations

Nearby Weather Stations

Station Location Temp. Windchill Dew Point Humidity Wind Precip. Elev Updated Type